Time;durP1;ratioP1;P1;durP2;ratioP2;P2;SDS_P1;SDS_P2;PMS_P1;PMS_P2;Temp;Humidity;BMP_temperature;BMP_pressure;BME280_temperature;BME280_humidity;BME280_pressure;Samples;Min_cycle;Max_cycle;Signal;HPM_P1;HPM_P2
2020/12/31 00:01:22;;;;;;;1.70;1.50;;;4.40;98.20;;;;;;4973148;28;20478;-78
2020/12/31 00:03:48;;;;;;;1.60;1.37;;;4.40;98.20;;;;;;4970544;28;20469;-80
2020/12/31 00:06:14;;;;;;;1.60;1.30;;;4.40;98.20;;;;;;4972281;28;20968;-78
2020/12/31 00:08:41;;;;;;;1.70;1.40;;;4.40;98.20;;;;;;4968641;28;20584;-80
2020/12/31 00:11:08;;;;;;;1.60;1.40;;;4.40;98.20;;;;;;4968276;28;20593;-80
2020/12/31 00:13:35;;;;;;;1.70;1.40;;;4.40;98.20;;;;;;4975965;28;20502;-78
2020/12/31 00:16:01;;;;;;;1.70;1.50;;;4.40;98.20;;;;;;4970739;28;20545;-79
2020/12/31 00:18:27;;;;;;;1.73;1.63;;;4.40;98.20;;;;;;4965435;28;21083;-77
2020/12/31 00:20:54;;;;;;;1.60;1.40;;;4.30;98.20;;;;;;4979785;28;20945;-78
2020/12/31 00:23:20;;;;;;;1.70;1.40;;;4.30;98.20;;;;;;4970084;28;20576;-79
2020/12/31 00:25:48;;;;;;;1.70;1.60;;;4.30;98.20;;;;;;4969952;28;21084;-79
2020/12/31 00:28:17;;;;;;;1.67;1.40;;;4.30;98.20;;;;;;4969113;28;20482;-79
2020/12/31 00:30:44;;;;;;;1.70;1.40;;;4.30;98.20;;;;;;4970463;28;20490;-77
2020/12/31 00:33:11;;;;;;;1.60;1.40;;;4.30;98.20;;;;;;4965758;28;20498;-77
2020/12/31 00:35:37;;;;;;;2.67;2.47;;;4.30;98.20;;;;;;4967182;28;20533;-77
2020/12/31 00:38:04;;;;;;;1.67;1.43;;;4.20;98.20;;;;;;4973613;28;20521;-78
2020/12/31 00:40:30;;;;;;;1.70;1.50;;;4.20;98.20;;;;;;4974393;28;21048;-78
2020/12/31 00:42:57;;;;;;;1.63;1.30;;;4.20;98.20;;;;;;4972701;28;20905;-78
2020/12/31 00:45:24;;;;;;;1.60;1.40;;;4.20;98.20;;;;;;4974707;28;20488;-80
2020/12/31 00:47:51;;;;;;;1.63;1.40;;;4.20;98.20;;;;;;4976109;28;20549;-78
2020/12/31 00:50:17;;;;;;;1.70;1.50;;;4.20;98.20;;;;;;4970310;28;21008;-78
2020/12/31 00:52:44;;;;;;;1.67;1.40;;;4.20;98.20;;;;;;4970840;28;20477;-77
2020/12/31 00:55:10;;;;;;;1.70;1.50;;;4.30;98.20;;;;;;4972432;28;20588;-78
2020/12/31 00:57:36;;;;;;;4.37;4.07;;;4.30;98.20;;;;;;4972039;28;20981;-78
2020/12/31 01:00:05;;;;;;;1.60;1.30;;;4.30;98.20;;;;;;4973089;28;20901;-79
2020/12/31 01:02:32;;;;;;;1.63;1.40;;;4.30;98.20;;;;;;4977693;28;20476;-77
2020/12/31 01:04:59;;;;;;;1.60;1.40;;;4.30;98.20;;;;;;4977330;28;20466;-78
2020/12/31 01:07:25;;;;;;;2.40;2.20;;;4.30;98.20;;;;;;4968058;28;20554;-78
2020/12/31 01:09:52;;;;;;;1.60;1.40;;;4.40;98.20;;;;;;4967717;28;20503;-78
2020/12/31 01:12:18;;;;;;;1.63;1.40;;;4.40;98.20;;;;;;4968348;28;20509;-78
2020/12/31 01:14:44;;;;;;;1.60;1.30;;;4.40;98.20;;;;;;4973593;28;20549;-78
2020/12/31 01:17:11;;;;;;;1.60;1.40;;;4.40;98.20;;;;;;4972521;28;20525;-78
2020/12/31 01:19:38;;;;;;;1.60;1.40;;;4.40;98.20;;;;;;4974333;28;20576;-78
2020/12/31 01:22:05;;;;;;;1.67;1.30;;;4.40;98.20;;;;;;4979101;28;20458;-77
2020/12/31 01:24:31;;;;;;;1.70;1.50;;;4.40;98.20;;;;;;4973730;28;20880;-78
2020/12/31 01:26:58;;;;;;;1.70;1.40;;;4.40;98.20;;;;;;4976874;28;20555;-78
2020/12/31 01:29:24;;;;;;;1.67;1.47;;;4.40;98.20;;;;;;4972321;28;20483;-78
2020/12/31 01:31:51;;;;;;;1.60;1.40;;;4.40;98.20;;;;;;4988807;28;20983;-78
2020/12/31 01:34:18;;;;;;;1.60;1.30;;;4.40;98.20;;;;;;4981152;28;20471;-77
2020/12/31 01:36:45;;;;;;;1.70;1.50;;;4.40;98.20;;;;;;4975809;28;20498;-77
2020/12/31 01:39:12;;;;;;;1.67;1.40;;;4.40;98.20;;;;;;4985622;28;20477;-79
2020/12/31 01:41:38;;;;;;;3.77;3.47;;;4.40;98.20;;;;;;4978961;28;20816;-79
2020/12/31 01:44:09;;;;;;;1.63;1.40;;;4.40;98.20;;;;;;4976341;28;20721;-78
2020/12/31 01:46:38;;;;;;;1.60;1.40;;;4.40;98.20;;;;;;4973936;28;20494;-79
2020/12/31 01:49:06;;;;;;;1.63;1.40;;;4.40;98.20;;;;;;4979251;28;20522;-77
2020/12/31 01:51:34;;;;;;;1.70;1.40;;;4.40;98.20;;;;;;4985935;28;20521;-77
2020/12/31 01:54:02;;;;;;;1.67;1.40;;;4.40;98.20;;;;;;4974206;28;20736;-79
2020/12/31 01:56:29;;;;;;;2.03;1.83;;;4.40;98.20;;;;;;4978749;28;20605;-78
2020/12/31 01:58:57;;;;;;;1.63;1.40;;;4.40;98.20;;;;;;4986974;28;20847;-79
2020/12/31 02:01:24;;;;;;;1.67;1.30;;;4.40;98.20;;;;;;4982137;28;20542;-79
2020/12/31 02:03:51;;;;;;;1.60;1.33;;;4.40;98.20;;;;;;4975794;28;20505;-79
2020/12/31 02:06:19;;;;;;;1.60;1.30;;;4.40;98.20;;;;;;4974168;28;20493;-78
2020/12/31 02:08:46;;;;;;;1.63;1.40;;;4.40;98.20;;;;;;4981361;28;20517;-79
2020/12/31 02:11:15;;;;;;;1.60;1.30;;;4.40;98.20;;;;;;4981508;28;20532;-78
2020/12/31 02:13:42;;;;;;;1.70;1.40;;;4.40;98.20;;;;;;4984430;28;20945;-77
2020/12/31 02:16:12;;;;;;;1.60;1.40;;;4.40;98.20;;;;;;4982891;28;20743;-78
2020/12/31 02:18:50;;;;;;;1.60;1.40;;;4.40;98.20;;;;;;4968794;28;20525;-78
2020/12/31 02:21:18;;;;;;;1.60;1.40;;;4.40;98.20;;;;;;4968951;28;20522;-80
2020/12/31 02:23:47;;;;;;;1.60;1.30;;;4.30;98.20;;;;;;4971239;28;20782;-77
2020/12/31 02:26:13;;;;;;;1.67;1.50;;;4.30;98.20;;;;;;4970901;28;20554;-77
2020/12/31 02:28:40;;;;;;;1.60;1.30;;;4.30;98.20;;;;;;4968416;28;20573;-78
2020/12/31 02:31:06;;;;;;;1.60;1.37;;;4.30;98.20;;;;;;4971896;28;20990;-78
2020/12/31 02:33:33;;;;;;;1.70;1.40;;;4.30;98.20;;;;;;4969375;28;20534;-79
2020/12/31 02:35:59;;;;;;;1.67;1.40;;;4.20;98.20;;;;;;4967530;28;20503;-78
2020/12/31 02:38:26;;;;;;;2.60;2.40;;;4.20;98.20;;;;;;4965235;28;20521;-77
2020/12/31 02:40:53;;;;;;;1.70;1.50;;;4.20;98.20;;;;;;4975096;28;20488;-78
2020/12/31 02:43:19;;;;;;;1.63;1.30;;;4.20;98.20;;;;;;4974357;28;20531;-78
2020/12/31 02:45:46;;;;;;;1.70;1.50;;;4.20;98.20;;;;;;4964062;28;20474;-77
2020/12/31 02:48:12;;;;;;;1.70;1.40;;;4.20;98.20;;;;;;4976330;28;20702;-78
2020/12/31 02:50:39;;;;;;;1.60;1.30;;;4.20;98.20;;;;;;4984996;28;20486;-80
2020/12/31 02:53:05;;;;;;;1.60;1.40;;;4.10;98.20;;;;;;4976169;28;20471;-78
2020/12/31 02:55:32;;;;;;;1.63;1.43;;;4.20;98.20;;;;;;4975061;28;20486;-81
2020/12/31 02:57:59;;;;;;;1.60;1.40;;;4.10;98.20;;;;;;4975869;28;20558;-80
2020/12/31 03:00:25;;;;;;;1.70;1.40;;;4.20;98.20;;;;;;4957520;28;20502;-80
2020/12/31 03:02:52;;;;;;;1.70;1.40;;;4.10;98.20;;;;;;4962825;28;20478;-80
2020/12/31 03:05:18;;;;;;;1.60;1.30;;;4.10;98.20;;;;;;4960697;28;20470;-80
2020/12/31 03:07:45;;;;;;;1.70;1.50;;;4.10;98.20;;;;;;4969876;28;20502;-80
2020/12/31 03:10:11;;;;;;;1.60;1.30;;;4.10;98.20;;;;;;4970286;28;20530;-80
2020/12/31 03:12:38;;;;;;;1.63;1.43;;;4.10;98.20;;;;;;4967940;28;20564;-78
2020/12/31 03:15:08;;;;;;;1.60;1.40;;;4.10;98.20;;;;;;4967639;28;20508;-79
2020/12/31 03:17:35;;;;;;;1.60;1.33;;;4.10;98.20;;;;;;4967274;28;20502;-79
2020/12/31 03:20:01;;;;;;;1.63;1.40;;;4.10;98.20;;;;;;4969110;28;20514;-76
2020/12/31 03:22:28;;;;;;;1.70;1.50;;;4.10;98.20;;;;;;4975785;28;20462;-77
2020/12/31 03:24:54;;;;;;;1.70;1.50;;;4.10;98.20;;;;;;4970603;28;20875;-80
2020/12/31 03:27:21;;;;;;;1.70;1.50;;;4.10;98.20;;;;;;4968044;28;21083;-80
2020/12/31 03:29:47;;;;;;;1.60;1.40;;;4.10;98.20;;;;;;4965547;28;20505;-80
2020/12/31 03:32:14;;;;;;;1.60;1.30;;;4.10;98.20;;;;;;4964176;28;20502;-81
2020/12/31 03:34:41;;;;;;;1.67;1.40;;;4.00;98.20;;;;;;4985489;28;20924;-78
2020/12/31 03:37:07;;;;;;;1.60;1.30;;;4.00;98.20;;;;;;4959855;28;20507;-78
2020/12/31 03:39:34;;;;;;;1.60;1.30;;;4.00;98.20;;;;;;4973144;28;21398;-78
2020/12/31 03:42:00;;;;;;;1.67;1.50;;;4.00;98.20;;;;;;4971995;28;20556;-79
2020/12/31 03:44:27;;;;;;;1.67;1.40;;;4.00;98.20;;;;;;4971607;28;20474;-80
2020/12/31 03:46:54;;;;;;;1.63;1.50;;;4.00;98.20;;;;;;4967935;28;20526;-79
2020/12/31 03:49:22;;;;;;;1.70;1.50;;;4.00;98.20;;;;;;4990275;28;20916;-77
2020/12/31 03:51:48;;;;;;;1.70;1.43;;;4.00;98.20;;;;;;4966300;28;20494;-78
2020/12/31 03:54:15;;;;;;;1.67;1.43;;;4.00;98.20;;;;;;4975293;28;20494;-78
2020/12/31 03:56:41;;;;;;;1.70;1.47;;;4.00;98.20;;;;;;4971917;28;20498;-78
2020/12/31 03:59:08;;;;;;;1.70;1.40;;;4.00;98.20;;;;;;4961398;28;21018;-79
2020/12/31 04:01:35;;;;;;;1.70;1.50;;;4.00;98.20;;;;;;4969795;28;20501;-80
2020/12/31 04:04:01;;;;;;;1.60;1.30;;;3.90;98.20;;;;;;4974481;28;20502;-78
2020/12/31 04:06:29;;;;;;;1.60;1.30;;;3.90;98.20;;;;;;4970419;28;20504;-78
2020/12/31 04:08:59;;;;;;;1.60;1.40;;;3.90;98.20;;;;;;4972550;28;20762;-79
2020/12/31 04:11:25;;;;;;;1.63;1.40;;;3.90;98.20;;;;;;4978231;28;20514;-79
2020/12/31 04:13:52;;;;;;;1.60;1.40;;;3.90;98.20;;;;;;4974885;28;20585;-79
2020/12/31 04:16:18;;;;;;;1.60;1.30;;;3.90;98.20;;;;;;4972161;28;20469;-80
2020/12/31 04:18:45;;;;;;;1.70;1.60;;;3.90;98.20;;;;;;4967481;28;21004;-78
2020/12/31 04:21:11;;;;;;;1.70;1.50;;;3.90;98.20;;;;;;4991570;28;20469;-78
2020/12/31 04:23:40;;;;;;;1.60;1.30;;;3.90;98.20;;;;;;4966892;28;20561;-78
2020/12/31 04:26:10;;;;;;;1.60;1.30;;;3.90;98.20;;;;;;4972779;28;20501;-78
2020/12/31 04:28:37;;;;;;;1.70;1.40;;;3.90;98.20;;;;;;4975509;28;20478;-77
2020/12/31 04:31:04;;;;;;;1.70;1.40;;;3.90;98.20;;;;;;4980444;28;21073;-78
2020/12/31 04:33:30;;;;;;;2.00;1.80;;;3.90;98.20;;;;;;4969704;28;20553;-78
2020/12/31 04:35:56;;;;;;;1.67;1.40;;;4.00;98.20;;;;;;4968852;28;20490;-78
2020/12/31 04:38:23;;;;;;;1.70;1.50;;;4.00;98.20;;;;;;4984402;28;20532;-77
2020/12/31 04:40:50;;;;;;;1.67;1.43;;;4.00;98.20;;;;;;4963025;28;20467;-77
2020/12/31 04:43:17;;;;;;;1.70;1.50;;;4.00;98.20;;;;;;4967548;28;20565;-78
2020/12/31 04:45:44;;;;;;;1.70;1.40;;;4.00;98.20;;;;;;4981869;28;20862;-77
2020/12/31 04:48:17;;;;;;;1.70;1.47;;;4.00;98.20;;;;;;4969630;28;20520;-76
2020/12/31 04:50:48;;;;;;;1.60;1.30;;;4.00;98.20;;;;;;4985720;28;20747;-77
2020/12/31 04:53:14;;;;;;;1.63;1.40;;;4.00;98.20;;;;;;4973602;28;20548;-78
2020/12/31 04:55:43;;;;;;;1.60;1.40;;;4.00;98.20;;;;;;4963697;28;20699;-77
2020/12/31 04:58:11;;;;;;;1.63;1.40;;;4.00;98.20;;;;;;4968687;28;20470;-78
2020/12/31 05:00:38;;;;;;;1.60;1.30;;;4.00;98.20;;;;;;4968793;28;20821;-79
2020/12/31 05:03:06;;;;;;;1.67;1.43;;;4.00;98.20;;;;;;4973953;28;20470;-77
2020/12/31 05:05:32;;;;;;;1.60;1.30;;;4.00;98.20;;;;;;4964029;28;20532;-78
2020/12/31 05:07:59;;;;;;;1.63;1.50;;;4.00;98.20;;;;;;4971172;28;20534;-79
2020/12/31 05:10:26;;;;;;;1.67;1.40;;;4.00;98.20;;;;;;4970035;28;21043;-77
2020/12/31 05:13:04;;;;;;;1.60;1.40;;;4.00;98.20;;;;;;4970601;28;20553;-78
2020/12/31 05:15:36;;;;;;;1.67;1.40;;;4.00;98.20;;;;;;4960769;28;20493;-77
2020/12/31 05:18:20;;;;;;;1.70;1.40;;;4.00;98.20;;;;;;4968682;28;20470;-76
2020/12/31 05:20:47;;;;;;;1.70;1.50;;;4.00;98.20;;;;;;4978537;28;20470;-77
2020/12/31 05:23:14;;;;;;;1.60;1.30;;;4.00;98.20;;;;;;4976316;28;20525;-77
2020/12/31 05:25:41;;;;;;;1.70;1.40;;;4.00;98.20;;;;;;4971179;28;20638;-77
2020/12/31 05:28:23;;;;;;;1.63;1.40;;;4.00;98.20;;;;;;4973487;28;20522;-76
2020/12/31 05:30:52;;;;;;;1.70;1.53;;;4.00;98.20;;;;;;4972303;28;20517;-78
2020/12/31 05:33:28;;;;;;;1.60;1.30;;;4.00;98.20;;;;;;4972778;28;20514;-76
2020/12/31 05:36:16;;;;;;;1.70;1.50;;;4.00;98.20;;;;;;4972216;28;20545;-77
2020/12/31 05:38:43;;;;;;;1.63;1.40;;;4.00;98.20;;;;;;4972196;28;20514;-78
2020/12/31 05:41:11;;;;;;;1.60;1.30;;;3.90;98.20;;;;;;4971454;28;20561;-78
2020/12/31 05:43:37;;;;;;;1.70;1.60;;;3.90;98.20;;;;;;4972099;28;20508;-77
2020/12/31 05:46:09;;;;;;;1.63;1.30;;;3.90;98.20;;;;;;4980914;28;20987;-80
2020/12/31 05:48:35;;;;;;;1.67;1.40;;;3.90;98.20;;;;;;4986000;28;20497;-77
2020/12/31 05:51:20;;;;;;;1.60;1.40;;;3.90;98.20;;;;;;4966300;28;20526;-80
2020/12/31 05:53:48;;;;;;;1.60;1.30;;;3.90;98.20;;;;;;4979599;28;20470;-78
2020/12/31 05:56:17;;;;;;;1.67;1.40;;;3.80;98.20;;;;;;4973624;28;20562;-76
2020/12/31 05:58:49;;;;;;;1.63;1.47;;;3.80;98.20;;;;;;4971453;28;20553;-79
2020/12/31 06:01:17;;;;;;;1.70;1.57;;;3.80;98.20;;;;;;4973166;28;20498;-79
2020/12/31 06:03:49;;;;;;;1.60;1.40;;;3.80;98.20;;;;;;4977526;28;20482;-80
2020/12/31 06:06:21;;;;;;;1.63;1.40;;;3.80;98.20;;;;;;4972981;28;20561;-78
2020/12/31 06:08:55;;;;;;;1.60;1.40;;;3.80;98.20;;;;;;4967441;28;20498;-78
2020/12/31 06:11:38;;;;;;;1.63;1.30;;;3.80;98.20;;;;;;4973536;28;20544;-76
2020/12/31 06:14:06;;;;;;;1.63;1.40;;;3.70;98.20;;;;;;4963859;28;20882;-78
2020/12/31 06:16:37;;;;;;;1.70;1.50;;;3.70;98.20;;;;;;4972159;28;21130;-77
2020/12/31 06:19:33;;;;;;;1.70;1.50;;;3.70;98.20;;;;;;4966770;28;20521;-76
2020/12/31 06:22:10;;;;;;;1.60;1.40;;;3.70;98.20;;;;;;4976037;28;20489;-76
2020/12/31 06:24:38;;;;;;;1.60;1.40;;;3.60;98.20;;;;;;4972440;28;20501;-80
2020/12/31 06:27:10;;;;;;;1.60;1.40;;;3.60;98.20;;;;;;4964693;28;20575;-80
2020/12/31 06:29:45;;;;;;;1.70;1.40;;;3.60;98.20;;;;;;4971935;28;20514;-75
2020/12/31 06:32:17;;;;;;;1.70;1.40;;;3.60;98.20;;;;;;4981046;28;20571;-77
2020/12/31 06:34:45;;;;;;;1.70;1.50;;;3.60;98.20;;;;;;4970198;28;20867;-79
2020/12/31 06:37:13;;;;;;;1.63;1.40;;;3.60;98.20;;;;;;4971224;28;20731;-79
2020/12/31 06:39:40;;;;;;;1.70;1.50;;;3.60;98.20;;;;;;4987358;28;20514;-78
2020/12/31 06:42:07;;;;;;;1.60;1.40;;;3.60;98.20;;;;;;4973865;28;20561;-79
2020/12/31 06:44:34;;;;;;;1.70;1.40;;;3.60;98.20;;;;;;4967523;28;20498;-77
2020/12/31 06:47:01;;;;;;;1.63;1.40;;;3.60;98.20;;;;;;4972637;28;20521;-78
2020/12/31 06:49:50;;;;;;;1.60;1.40;;;3.60;98.20;;;;;;4976444;28;20571;-78
2020/12/31 06:52:21;;;;;;;1.70;1.50;;;3.70;98.20;;;;;;4977712;28;20492;-78
2020/12/31 06:54:48;;;;;;;1.70;1.40;;;3.70;98.20;;;;;;4967669;28;20561;-77
2020/12/31 06:57:38;;;;;;;1.70;1.40;;;3.70;98.20;;;;;;4975549;28;20858;-78
2020/12/31 07:00:06;;;;;;;1.60;1.30;;;3.70;98.20;;;;;;4968147;28;20483;-77
2020/12/31 07:02:45;;;;;;;1.60;1.40;;;3.70;98.20;;;;;;4982339;28;20563;-77
2020/12/31 07:05:22;;;;;;;1.70;1.50;;;3.70;98.20;;;;;;4983048;28;20493;-76
2020/12/31 07:07:49;;;;;;;1.60;1.40;;;3.70;98.20;;;;;;4970455;28;21049;-79
2020/12/31 07:10:16;;;;;;;1.70;1.50;;;3.70;98.20;;;;;;4967406;28;20581;-75
2020/12/31 07:12:45;;;;;;;1.70;1.50;;;3.60;98.20;;;;;;4968875;28;20466;-75
2020/12/31 07:15:15;;;;;;;1.60;1.30;;;3.60;98.20;;;;;;4966846;28;20454;-77
2020/12/31 07:17:43;;;;;;;1.60;1.40;;;3.50;98.20;;;;;;4961792;28;20714;-75
2020/12/31 07:20:11;;;;;;;1.70;1.50;;;3.50;98.20;;;;;;4977407;28;20529;-77
2020/12/31 07:22:40;;;;;;;1.70;1.40;;;3.50;98.20;;;;;;4962296;28;20466;-76
2020/12/31 07:25:07;;;;;;;1.70;1.50;;;3.50;98.20;;;;;;4979811;28;20509;-77
2020/12/31 07:27:36;;;;;;;1.70;1.50;;;3.50;98.20;;;;;;4974162;28;20485;-76
2020/12/31 07:30:14;;;;;;;1.60;1.30;;;3.50;98.20;;;;;;4976117;28;20545;-77
2020/12/31 07:33:00;;;;;;;1.63;1.40;;;3.40;98.20;;;;;;4976470;28;20490;-77
2020/12/31 07:35:29;;;;;;;1.67;1.40;;;3.50;98.20;;;;;;4975589;28;20588;-79
2020/12/31 07:37:58;;;;;;;1.60;1.40;;;3.50;98.20;;;;;;4970334;28;20746;-78
2020/12/31 07:40:33;;;;;;;1.63;1.40;;;3.40;98.20;;;;;;4973910;28;20485;-76
2020/12/31 07:42:59;;;;;;;1.63;1.40;;;3.40;98.20;;;;;;4966994;28;21285;-78
2020/12/31 07:45:27;;;;;;;1.67;1.43;;;3.40;98.20;;;;;;4965275;28;20467;-77
2020/12/31 07:47:54;;;;;;;1.70;1.50;;;3.40;98.20;;;;;;4972122;28;20499;-77
2020/12/31 07:50:21;;;;;;;1.60;1.40;;;3.40;98.20;;;;;;4975774;28;20533;-75
2020/12/31 07:52:48;;;;;;;1.70;1.50;;;3.30;98.20;;;;;;4968824;28;20474;-76
2020/12/31 07:55:16;;;;;;;1.70;1.50;;;3.30;98.20;;;;;;4973711;28;20835;-79
2020/12/31 07:57:43;;;;;;;1.70;1.50;;;3.30;98.20;;;;;;4973243;28;20551;-78
2020/12/31 08:00:14;;;;;;;1.67;1.40;;;3.30;98.20;;;;;;4975454;28;20968;-79
2020/12/31 08:02:46;;;;;;;1.63;1.47;;;3.30;98.20;;;;;;4970924;28;20826;-79
2020/12/31 08:05:14;;;;;;;1.70;1.40;;;3.30;98.20;;;;;;4971866;28;20482;-78
2020/12/31 08:07:41;;;;;;;1.63;1.40;;;3.30;98.20;;;;;;4978112;28;20713;-78
2020/12/31 08:10:08;;;;;;;1.70;1.60;;;3.30;98.20;;;;;;4967028;28;20519;-76
2020/12/31 08:12:38;;;;;;;1.60;1.40;;;3.30;98.20;;;;;;4966587;28;20470;-77
2020/12/31 08:15:05;;;;;;;1.60;1.30;;;3.40;98.20;;;;;;4984942;28;20521;-76
2020/12/31 08:17:32;;;;;;;1.70;1.60;;;3.30;98.20;;;;;;4969631;28;20470;-76
2020/12/31 08:20:00;;;;;;;2.20;2.00;;;3.30;98.20;;;;;;4974794;28;20550;-77
2020/12/31 08:22:33;;;;;;;1.60;1.27;;;3.30;98.20;;;;;;4974675;28;20482;-75
2020/12/31 08:25:06;;;;;;;1.63;1.40;;;3.30;98.20;;;;;;4971002;28;20462;-75
2020/12/31 08:27:38;;;;;;;1.67;1.40;;;3.30;98.20;;;;;;4969298;28;20494;-76
2020/12/31 08:30:06;;;;;;;1.60;1.40;;;3.30;98.20;;;;;;4989949;28;20511;-76
2020/12/31 08:32:48;;;;;;;1.63;1.40;;;3.30;98.20;;;;;;4967422;28;20957;-77
2020/12/31 08:35:20;;;;;;;1.70;1.50;;;3.30;98.20;;;;;;4962802;28;20474;-77
2020/12/31 08:37:57;;;;;;;1.70;1.40;;;3.30;98.20;;;;;;4984220;28;20461;-77
2020/12/31 08:40:24;;;;;;;1.70;1.50;;;3.30;98.20;;;;;;4980138;28;20528;-79
2020/12/31 08:42:55;;;;;;;1.67;1.40;;;3.30;98.20;;;;;;4967364;28;20466;-77
2020/12/31 08:45:40;;;;;;;1.70;1.50;;;3.30;98.20;;;;;;4977390;28;20480;-77
2020/12/31 08:48:18;;;;;;;1.63;1.40;;;3.30;98.20;;;;;;4975923;28;20573;-77
2020/12/31 08:51:02;;;;;;;1.67;1.40;;;3.40;98.20;;;;;;4980027;28;20610;-76
2020/12/31 08:53:31;;;;;;;1.60;1.50;;;3.40;98.20;;;;;;4964097;28;20472;-75
2020/12/31 08:55:57;;;;;;;1.60;1.40;;;3.40;98.20;;;;;;4969581;28;20466;-76
2020/12/31 08:58:29;;;;;;;1.60;1.40;;;3.40;98.20;;;;;;4969339;28;20573;-76
2020/12/31 09:00:56;;;;;;;1.60;1.40;;;3.40;98.20;;;;;;4966121;28;20513;-76
2020/12/31 09:03:24;;;;;;;1.67;1.40;;;3.50;98.20;;;;;;4970167;28;20465;-77
2020/12/31 09:05:57;;;;;;;1.70;1.50;;;3.50;98.20;;;;;;4975617;28;20808;-77
2020/12/31 09:08:24;;;;;;;1.70;1.47;;;3.50;98.20;;;;;;4965316;28;20545;-76
2020/12/31 09:11:00;;;;;;;1.60;1.40;;;3.50;98.20;;;;;;4967872;28;20518;-76
2020/12/31 09:13:33;;;;;;;1.63;1.40;;;3.50;98.20;;;;;;4972030;28;20529;-76
2020/12/31 09:16:10;;;;;;;1.63;1.40;;;3.50;98.20;;;;;;4960808;28;20499;-76
2020/12/31 09:18:36;;;;;;;1.67;1.40;;;3.50;98.20;;;;;;4966658;28;20953;-75
2020/12/31 09:21:03;;;;;;;1.60;1.30;;;3.50;98.20;;;;;;4985638;28;20895;-77
2020/12/31 09:23:30;;;;;;;1.60;1.40;;;3.50;98.20;;;;;;4966707;28;20930;-77
2020/12/31 09:25:56;;;;;;;1.70;1.50;;;3.50;98.20;;;;;;4963134;28;20562;-76
2020/12/31 09:28:24;;;;;;;1.67;1.40;;;3.50;98.20;;;;;;4970290;28;20512;-76
2020/12/31 09:30:52;;;;;;;1.67;1.40;;;3.50;98.20;;;;;;4966469;28;20717;-76
2020/12/31 09:33:21;;;;;;;1.70;1.50;;;3.60;98.20;;;;;;4965528;28;20991;-75
2020/12/31 09:35:47;;;;;;;1.70;1.40;;;3.60;98.20;;;;;;4967951;28;20506;-76
2020/12/31 09:38:16;;;;;;;1.60;1.40;;;3.60;98.20;;;;;;4969573;28;20642;-76
2020/12/31 09:40:42;;;;;;;1.63;1.40;;;3.60;98.20;;;;;;4984132;28;20561;-75
2020/12/31 09:43:11;;;;;;;1.70;1.40;;;3.70;98.20;;;;;;4970246;28;20858;-77
2020/12/31 09:45:38;;;;;;;1.63;1.43;;;3.70;98.20;;;;;;4960983;28;21048;-77
2020/12/31 09:48:06;;;;;;;1.70;1.50;;;3.70;98.20;;;;;;4976524;28;20481;-77
2020/12/31 09:50:33;;;;;;;1.67;1.40;;;3.70;98.20;;;;;;4969157;28;20486;-77
2020/12/31 09:53:01;;;;;;;1.60;1.40;;;3.70;98.20;;;;;;4970068;28;20609;-77
2020/12/31 09:55:28;;;;;;;1.60;1.40;;;3.70;98.20;;;;;;4968782;28;20467;-77
2020/12/31 09:57:55;;;;;;;1.60;1.40;;;3.80;98.20;;;;;;4972601;28;20884;-77
2020/12/31 10:00:21;;;;;;;1.60;1.40;;;3.80;98.20;;;;;;4972453;28;20486;-78
2020/12/31 10:02:49;;;;;;;1.70;1.57;;;3.80;98.20;;;;;;4972660;28;21041;-76
2020/12/31 10:05:16;;;;;;;2.17;1.97;;;3.80;98.20;;;;;;4979489;28;20513;-77
2020/12/31 10:07:42;;;;;;;1.60;1.33;;;3.80;98.20;;;;;;4971465;28;20553;-79
2020/12/31 10:10:09;;;;;;;1.70;1.40;;;3.80;98.20;;;;;;4971320;28;20509;-78
2020/12/31 10:12:35;;;;;;;1.63;1.40;;;3.80;98.20;;;;;;4983762;28;20534;-78
2020/12/31 10:15:02;;;;;;;1.60;1.40;;;3.80;98.20;;;;;;4972813;28;20883;-78
2020/12/31 10:17:28;;;;;;;1.60;1.40;;;3.80;98.20;;;;;;4968628;28;20502;-76
2020/12/31 10:19:56;;;;;;;1.70;1.50;;;3.80;98.20;;;;;;4976188;28;20572;-79
2020/12/31 10:22:24;;;;;;;1.70;1.40;;;3.80;98.20;;;;;;4976047;28;20477;-78
2020/12/31 10:24:51;;;;;;;1.70;1.50;;;3.80;98.20;;;;;;4976601;28;20470;-80
2020/12/31 10:27:17;;;;;;;1.67;1.47;;;3.80;98.20;;;;;;4971781;28;20529;-78
2020/12/31 10:29:43;;;;;;;1.63;1.40;;;3.80;98.20;;;;;;4974929;28;20490;-79
2020/12/31 10:32:10;;;;;;;1.63;1.40;;;3.80;98.20;;;;;;4968395;28;20977;-76
2020/12/31 10:34:36;;;;;;;1.70;1.50;;;3.80;98.20;;;;;;4982764;28;20561;-75
2020/12/31 10:37:03;;;;;;;1.60;1.30;;;3.80;98.20;;;;;;4976006;28;20561;-78
2020/12/31 10:39:30;;;;;;;1.67;1.40;;;3.80;98.20;;;;;;4973379;28;20542;-79
2020/12/31 10:41:56;;;;;;;1.60;1.40;;;3.90;98.20;;;;;;4976427;28;20485;-79
2020/12/31 10:44:23;;;;;;;1.63;1.40;;;3.90;98.20;;;;;;4993784;28;20477;-78
2020/12/31 10:46:49;;;;;;;1.67;1.40;;;3.90;98.20;;;;;;4969885;28;20462;-79
2020/12/31 10:49:16;;;;;;;2.80;2.27;;;3.90;98.20;;;;;;4967455;28;20934;-79
2020/12/31 10:51:44;;;;;;;1.60;1.40;;;3.90;98.20;;;;;;4982636;28;20531;-78
2020/12/31 10:54:12;;;;;;;1.70;1.40;;;3.90;98.20;;;;;;4966655;28;20506;-77
2020/12/31 10:56:39;;;;;;;1.70;1.43;;;3.90;98.20;;;;;;4970514;28;21020;-78
2020/12/31 10:59:06;;;;;;;1.70;1.40;;;3.90;98.20;;;;;;4967532;28;20494;-78
2020/12/31 11:01:32;;;;;;;1.63;1.40;;;3.90;98.20;;;;;;4972439;28;20458;-79
2020/12/31 11:03:59;;;;;;;1.70;1.57;;;3.90;98.20;;;;;;4966583;28;20529;-78
2020/12/31 11:06:30;;;;;;;1.63;1.33;;;3.90;98.20;;;;;;4969037;28;20529;-77
2020/12/31 11:08:57;;;;;;;1.70;1.30;;;3.90;98.20;;;;;;4965867;28;20490;-79
2020/12/31 11:11:25;;;;;;;1.70;1.40;;;3.80;98.20;;;;;;4972631;28;20494;-79
2020/12/31 11:13:53;;;;;;;1.67;1.30;;;3.80;98.20;;;;;;4973225;28;20485;-78
2020/12/31 11:16:20;;;;;;;1.67;1.33;;;3.80;98.20;;;;;;4967500;28;20530;-78
2020/12/31 11:18:47;;;;;;;1.60;1.40;;;3.80;98.20;;;;;;4969546;28;21136;-78
2020/12/31 11:21:15;;;;;;;1.60;1.30;;;3.80;98.20;;;;;;4979412;28;20466;-78
2020/12/31 11:23:41;;;;;;;1.70;1.50;;;3.90;98.20;;;;;;4973257;28;20470;-77
2020/12/31 11:26:11;;;;;;;1.70;1.50;;;4.00;98.20;;;;;;4971627;28;20543;-79
2020/12/31 11:28:38;;;;;;;1.63;1.40;;;4.00;98.20;;;;;;4983155;28;20486;-77
2020/12/31 11:31:06;;;;;;;1.70;1.40;;;4.10;98.20;;;;;;4976628;28;20517;-78
2020/12/31 11:33:32;;;;;;;1.70;1.40;;;4.10;98.20;;;;;;4977703;28;20537;-79
2020/12/31 11:35:59;;;;;;;1.70;1.50;;;4.10;98.20;;;;;;4972345;28;20485;-79
2020/12/31 11:38:26;;;;;;;1.67;1.43;;;4.10;98.20;;;;;;4971383;28;20490;-78
2020/12/31 11:40:53;;;;;;;1.63;1.40;;;4.10;98.20;;;;;;4965258;28;20466;-76
2020/12/31 11:43:19;;;;;;;1.60;1.33;;;4.10;98.20;;;;;;4968696;28;20525;-76
2020/12/31 11:45:47;;;;;;;1.67;1.40;;;4.10;98.20;;;;;;4971955;28;20545;-76
2020/12/31 11:48:14;;;;;;;1.60;1.40;;;4.00;98.20;;;;;;4970004;28;20521;-77
2020/12/31 11:50:41;;;;;;;1.70;1.50;;;3.90;98.20;;;;;;4974157;28;20492;-78
2020/12/31 11:53:07;;;;;;;1.63;1.30;;;3.90;98.20;;;;;;4964375;28;20565;-78
2020/12/31 11:55:34;;;;;;;1.60;1.30;;;3.80;98.20;;;;;;4965425;28;20549;-77
2020/12/31 11:58:00;;;;;;;1.77;1.67;;;3.70;98.20;;;;;;4961714;28;20553;-78
2020/12/31 12:00:27;;;;;;;1.60;1.30;;;3.70;98.20;;;;;;4958438;28;20959;-77
2020/12/31 12:02:53;;;;;;;1.67;1.40;;;3.70;98.20;;;;;;4968422;28;20475;-78
2020/12/31 12:05:20;;;;;;;1.60;1.30;;;3.60;98.20;;;;;;4964936;28;21072;-76
2020/12/31 12:07:47;;;;;;;1.60;1.40;;;3.60;98.20;;;;;;4977383;28;20528;-77
2020/12/31 12:10:13;;;;;;;1.67;1.40;;;3.50;98.20;;;;;;4967288;28;20549;-78
2020/12/31 12:12:40;;;;;;;1.70;1.50;;;3.50;98.20;;;;;;4960195;28;20606;-77
2020/12/31 12:15:07;;;;;;;1.60;1.30;;;3.50;98.20;;;;;;4968657;28;20553;-77
2020/12/31 12:17:34;;;;;;;1.60;1.40;;;3.50;98.20;;;;;;4971302;28;21052;-77
2020/12/31 12:20:00;;;;;;;1.60;1.40;;;3.50;98.20;;;;;;4973215;28;20887;-76
2020/12/31 12:22:29;;;;;;;1.70;1.50;;;3.50;98.20;;;;;;4965643;28;20549;-78
2020/12/31 12:24:56;;;;;;;1.60;1.40;;;3.50;98.20;;;;;;4966444;28;20561;-78
2020/12/31 12:27:22;;;;;;;1.67;1.50;;;3.50;98.20;;;;;;4965136;28;20466;-77
2020/12/31 12:29:48;;;;;;;1.60;1.30;;;3.50;98.20;;;;;;4960458;28;20529;-76
2020/12/31 12:32:15;;;;;;;1.63;1.37;;;3.50;98.20;;;;;;4959461;28;20997;-77
2020/12/31 12:34:41;;;;;;;1.70;1.50;;;3.50;98.20;;;;;;4965140;28;20466;-77
2020/12/31 12:37:08;;;;;;;1.70;1.50;;;3.50;98.20;;;;;;4971725;28;20484;-78
2020/12/31 12:39:35;;;;;;;1.73;1.63;;;3.60;98.20;;;;;;4960708;28;20588;-77
2020/12/31 12:42:02;;;;;;;1.60;1.30;;;3.60;98.20;;;;;;4961580;28;20556;-77
2020/12/31 12:44:28;;;;;;;1.67;1.40;;;3.50;98.20;;;;;;4962796;28;20569;-77
2020/12/31 12:46:54;;;;;;;1.70;1.40;;;3.50;98.20;;;;;;4968202;28;20530;-77
2020/12/31 12:49:21;;;;;;;1.60;1.30;;;3.50;98.20;;;;;;4981743;28;20592;-77
2020/12/31 12:51:50;;;;;;;1.63;1.40;;;3.60;98.20;;;;;;4978825;28;20517;-77
2020/12/31 12:54:16;;;;;;;1.63;1.40;;;3.50;98.20;;;;;;4977494;28;21005;-78
2020/12/31 12:56:50;;;;;;;1.60;1.40;;;3.60;98.20;;;;;;4970792;28;20528;-78
2020/12/31 12:59:16;;;;;;;1.60;1.50;;;3.60;98.20;;;;;;4972584;28;20526;-77
2020/12/31 13:01:43;;;;;;;1.60;1.40;;;3.70;98.20;;;;;;4975275;28;20579;-78
2020/12/31 13:04:09;;;;;;;1.63;1.40;;;3.70;98.20;;;;;;4976029;28;20469;-78